sensor_id;sensor_type;location;lat;lon;timestamp;pressure;altitude;pressure_sealevel;temperature;humidity
27685;BME280;46113;50.130;8.526;2024-02-21T00:00:14;99930.63;;;3.32;73.71
27685;BME280;46113;50.130;8.526;2024-02-21T00:02:41;99921.03;;;3.34;73.80
27685;BME280;46113;50.130;8.526;2024-02-21T00:05:08;99918.44;;;3.32;73.46
27685;BME280;46113;50.130;8.526;2024-02-21T00:07:35;99914.97;;;3.30;73.66
27685;BME280;46113;50.130;8.526;2024-02-21T00:10:02;99919.13;;;3.41;73.22
27685;BME280;46113;50.130;8.526;2024-02-21T00:12:29;99916.16;;;3.11;73.55
27685;BME280;46113;50.130;8.526;2024-02-21T00:14:56;99909.19;;;3.10;74.44
27685;BME280;46113;50.130;8.526;2024-02-21T00:17:23;99903.00;;;3.17;73.53
27685;BME280;46113;50.130;8.526;2024-02-21T00:19:52;99905.75;;;3.09;74.17
27685;BME280;46113;50.130;8.526;2024-02-21T00:22:19;99895.84;;;3.27;74.51
27685;BME280;46113;50.130;8.526;2024-02-21T00:24:46;99896.66;;;3.30;74.47
27685;BME280;46113;50.130;8.526;2024-02-21T00:27:12;99892.38;;;3.26;74.99
27685;BME280;46113;50.130;8.526;2024-02-21T00:29:39;99892.50;;;3.18;73.93
27685;BME280;46113;50.130;8.526;2024-02-21T00:32:06;99891.41;;;3.32;74.10
27685;BME280;46113;50.130;8.526;2024-02-21T00:34:32;99891.28;;;3.38;74.85
27685;BME280;46113;50.130;8.526;2024-02-21T00:37:00;99877.34;;;3.39;74.67
27685;BME280;46113;50.130;8.526;2024-02-21T00:39:26;99875.72;;;3.30;74.17
27685;BME280;46113;50.130;8.526;2024-02-21T00:41:53;99870.31;;;3.41;74.06
27685;BME280;46113;50.130;8.526;2024-02-21T00:44:20;99872.16;;;3.34;75.12
27685;BME280;46113;50.130;8.526;2024-02-21T00:46:47;99869.41;;;3.42;75.79
27685;BME280;46113;50.130;8.526;2024-02-21T00:49:13;99878.19;;;3.40;75.78
27685;BME280;46113;50.130;8.526;2024-02-21T00:51:40;99866.19;;;3.28;77.37
27685;BME280;46113;50.130;8.526;2024-02-21T00:54:07;99867.31;;;3.14;79.31
27685;BME280;46113;50.130;8.526;2024-02-21T00:56:34;99869.03;;;3.14;80.39
27685;BME280;46113;50.130;8.526;2024-02-21T00:59:00;99859.59;;;3.06;82.23
27685;BME280;46113;50.130;8.526;2024-02-21T01:01:27;99856.38;;;2.89;82.27
27685;BME280;46113;50.130;8.526;2024-02-21T01:03:54;99850.47;;;2.79;83.36
27685;BME280;46113;50.130;8.526;2024-02-21T01:06:21;99844.41;;;2.75;83.49
27685;BME280;46113;50.130;8.526;2024-02-21T01:08:48;99845.94;;;2.89;83.71
27685;BME280;46113;50.130;8.526;2024-02-21T01:11:16;99841.63;;;2.86;84.47
27685;BME280;46113;50.130;8.526;2024-02-21T01:13:43;99841.97;;;2.64;84.66
27685;BME280;46113;50.130;8.526;2024-02-21T01:16:10;99833.88;;;2.81;84.30
27685;BME280;46113;50.130;8.526;2024-02-21T01:18:37;99828.50;;;2.91;84.40
27685;BME280;46113;50.130;8.526;2024-02-21T01:21:07;99820.84;;;2.78;84.20
27685;BME280;46113;50.130;8.526;2024-02-21T01:23:34;99828.69;;;2.77;84.63
27685;BME280;46113;50.130;8.526;2024-02-21T01:26:02;99824.88;;;2.97;84.63
27685;BME280;46113;50.130;8.526;2024-02-21T01:28:29;99838.84;;;2.97;84.13
27685;BME280;46113;50.130;8.526;2024-02-21T01:30:57;99846.19;;;2.72;84.59
27685;BME280;46113;50.130;8.526;2024-02-21T01:33:23;99835.47;;;2.90;84.38
27685;BME280;46113;50.130;8.526;2024-02-21T01:35:50;99827.63;;;2.89;83.87
27685;BME280;46113;50.130;8.526;2024-02-21T01:38:17;99832.88;;;2.87;83.91
27685;BME280;46113;50.130;8.526;2024-02-21T01:40:44;99840.69;;;2.89;84.30
27685;BME280;46113;50.130;8.526;2024-02-21T01:43:19;99845.09;;;2.87;84.64
27685;BME280;46113;50.130;8.526;2024-02-21T01:45:49;99841.84;;;2.72;84.84
27685;BME280;46113;50.130;8.526;2024-02-21T01:48:17;99841.75;;;2.78;84.62
27685;BME280;46113;50.130;8.526;2024-02-21T01:50:45;99835.09;;;2.57;85.26
27685;BME280;46113;50.130;8.526;2024-02-21T01:53:40;99836.88;;;2.57;85.91
27685;BME280;46113;50.130;8.526;2024-02-21T01:56:05;99825.38;;;2.67;85.44
27685;BME280;46113;50.130;8.526;2024-02-21T01:58:34;99816.63;;;2.70;86.16
27685;BME280;46113;50.130;8.526;2024-02-21T02:01:03;99807.34;;;2.51;85.98
27685;BME280;46113;50.130;8.526;2024-02-21T02:03:30;99803.72;;;2.59;86.31
27685;BME280;46113;50.130;8.526;2024-02-21T02:05:57;99796.66;;;2.65;85.96
27685;BME280;46113;50.130;8.526;2024-02-21T02:08:24;99784.66;;;2.53;86.13
27685;BME280;46113;50.130;8.526;2024-02-21T02:10:51;99793.19;;;2.65;86.39
27685;BME280;46113;50.130;8.526;2024-02-21T02:13:18;99807.16;;;2.62;86.46
27685;BME280;46113;50.130;8.526;2024-02-21T02:15:47;99806.34;;;2.59;86.07
27685;BME280;46113;50.130;8.526;2024-02-21T02:18:15;99813.38;;;2.57;86.30
27685;BME280;46113;50.130;8.526;2024-02-21T02:20:44;99805.41;;;2.63;85.75
27685;BME280;46113;50.130;8.526;2024-02-21T02:23:25;99801.16;;;2.57;85.65
27685;BME280;46113;50.130;8.526;2024-02-21T02:25:51;99803.59;;;2.68;86.04
27685;BME280;46113;50.130;8.526;2024-02-21T02:28:19;99807.16;;;2.62;86.01
27685;BME280;46113;50.130;8.526;2024-02-21T02:30:47;99795.19;;;2.50;85.35
27685;BME280;46113;50.130;8.526;2024-02-21T02:33:14;99802.91;;;2.57;86.13
27685;BME280;46113;50.130;8.526;2024-02-21T02:35:41;99790.88;;;2.48;86.34
27685;BME280;46113;50.130;8.526;2024-02-21T02:38:08;99791.47;;;2.62;85.90
27685;BME280;46113;50.130;8.526;2024-02-21T02:40:35;99790.41;;;2.76;85.88
27685;BME280;46113;50.130;8.526;2024-02-21T02:43:02;99780.38;;;2.49;85.54
27685;BME280;46113;50.130;8.526;2024-02-21T02:45:29;99782.66;;;2.70;84.95
27685;BME280;46113;50.130;8.526;2024-02-21T02:47:56;99767.22;;;2.55;84.78
27685;BME280;46113;50.130;8.526;2024-02-21T02:50:25;99772.25;;;2.68;84.49
27685;BME280;46113;50.130;8.526;2024-02-21T02:52:52;99758.13;;;2.77;84.61
27685;BME280;46113;50.130;8.526;2024-02-21T02:55:20;99765.03;;;2.81;84.18
27685;BME280;46113;50.130;8.526;2024-02-21T02:57:47;99766.84;;;2.77;84.68
27685;BME280;46113;50.130;8.526;2024-02-21T03:00:14;99754.63;;;2.79;83.88
27685;BME280;46113;50.130;8.526;2024-02-21T03:02:42;99745.00;;;2.81;83.58
27685;BME280;46113;50.130;8.526;2024-02-21T03:05:13;99747.59;;;2.83;83.25
27685;BME280;46113;50.130;8.526;2024-02-21T03:07:42;99743.25;;;2.82;83.48
27685;BME280;46113;50.130;8.526;2024-02-21T03:10:10;99733.75;;;2.78;83.48
27685;BME280;46113;50.130;8.526;2024-02-21T03:12:38;99731.22;;;2.73;83.31
27685;BME280;46113;50.130;8.526;2024-02-21T03:15:05;99749.38;;;2.79;83.53
27685;BME280;46113;50.130;8.526;2024-02-21T03:17:32;99730.09;;;2.88;83.32
27685;BME280;46113;50.130;8.526;2024-02-21T03:20:02;99729.31;;;2.83;82.78
27685;BME280;46113;50.130;8.526;2024-02-21T03:22:31;99720.56;;;2.86;83.70
27685;BME280;46113;50.130;8.526;2024-02-21T03:24:59;99719.78;;;2.80;83.22
27685;BME280;46113;50.130;8.526;2024-02-21T03:27:26;99721.00;;;2.61;83.46
27685;BME280;46113;50.130;8.526;2024-02-21T03:29:53;99728.56;;;2.75;83.38
27685;BME280;46113;50.130;8.526;2024-02-21T03:32:20;99728.78;;;2.62;82.70
27685;BME280;46113;50.130;8.526;2024-02-21T03:34:46;99722.44;;;2.77;82.76
27685;BME280;46113;50.130;8.526;2024-02-21T03:37:13;99723.31;;;2.78;82.57
27685;BME280;46113;50.130;8.526;2024-02-21T03:39:41;99716.19;;;2.85;81.83
27685;BME280;46113;50.130;8.526;2024-02-21T03:42:08;99714.47;;;2.84;81.91
27685;BME280;46113;50.130;8.526;2024-02-21T03:44:34;99705.31;;;2.61;82.63
27685;BME280;46113;50.130;8.526;2024-02-21T03:47:01;99705.09;;;2.73;82.44
27685;BME280;46113;50.130;8.526;2024-02-21T03:49:28;99701.56;;;2.74;81.92
27685;BME280;46113;50.130;8.526;2024-02-21T03:51:56;99702.59;;;2.67;82.07
27685;BME280;46113;50.130;8.526;2024-02-21T03:54:23;99692.53;;;2.92;81.81
27685;BME280;46113;50.130;8.526;2024-02-21T03:56:50;99690.75;;;2.94;82.35
27685;BME280;46113;50.130;8.526;2024-02-21T03:59:16;99690.75;;;2.94;82.92
27685;BME280;46113;50.130;8.526;2024-02-21T04:01:43;99691.56;;;2.97;81.60
27685;BME280;46113;50.130;8.526;2024-02-21T04:04:10;99694.97;;;3.02;80.95
27685;BME280;46113;50.130;8.526;2024-02-21T04:06:46;99693.50;;;2.88;82.56
27685;BME280;46113;50.130;8.526;2024-02-21T04:09:14;99697.91;;;2.85;81.94
27685;BME280;46113;50.130;8.526;2024-02-21T04:11:41;99692.34;;;3.02;81.48
27685;BME280;46113;50.130;8.526;2024-02-21T04:14:08;99695.03;;;2.99;81.58
27685;BME280;46113;50.130;8.526;2024-02-21T04:16:35;99693.28;;;2.99;81.54
27685;BME280;46113;50.130;8.526;2024-02-21T04:19:02;99696.03;;;2.91;81.18
27685;BME280;46113;50.130;8.526;2024-02-21T04:21:29;99695.84;;;3.02;81.33
27685;BME280;46113;50.130;8.526;2024-02-21T04:23:55;99681.22;;;2.92;81.47
27685;BME280;46113;50.130;8.526;2024-02-21T04:26:22;99676.75;;;2.99;81.34
27685;BME280;46113;50.130;8.526;2024-02-21T04:28:49;99678.31;;;3.07;81.51
27685;BME280;46113;50.130;8.526;2024-02-21T04:31:16;99672.75;;;2.80;81.56
27685;BME280;46113;50.130;8.526;2024-02-21T04:33:42;99667.53;;;2.79;81.26
27685;BME280;46113;50.130;8.526;2024-02-21T04:36:09;99661.41;;;2.80;81.21
27685;BME280;46113;50.130;8.526;2024-02-21T04:38:36;99658.66;;;2.86;81.38
27685;BME280;46113;50.130;8.526;2024-02-21T04:41:03;99650.34;;;2.65;82.35
27685;BME280;46113;50.130;8.526;2024-02-21T04:43:29;99657.31;;;2.65;81.98
27685;BME280;46113;50.130;8.526;2024-02-21T04:45:56;99655.38;;;2.78;82.15
27685;BME280;46113;50.130;8.526;2024-02-21T04:48:23;99648.16;;;2.91;81.95
27685;BME280;46113;50.130;8.526;2024-02-21T04:50:50;99637.28;;;2.67;81.30
27685;BME280;46113;50.130;8.526;2024-02-21T04:53:16;99630.09;;;2.77;81.76
27685;BME280;46113;50.130;8.526;2024-02-21T04:55:43;99640.63;;;2.74;82.04
27685;BME280;46113;50.130;8.526;2024-02-21T04:58:10;99634.56;;;2.70;82.36
27685;BME280;46113;50.130;8.526;2024-02-21T05:00:37;99624.03;;;2.76;82.02
27685;BME280;46113;50.130;8.526;2024-02-21T05:03:04;99632.88;;;2.69;82.11
27685;BME280;46113;50.130;8.526;2024-02-21T05:05:30;99643.34;;;2.67;81.86
27685;BME280;46113;50.130;8.526;2024-02-21T05:07:57;99647.53;;;2.76;81.60
27685;BME280;46113;50.130;8.526;2024-02-21T05:10:24;99640.47;;;2.83;81.67
27685;BME280;46113;50.130;8.526;2024-02-21T05:12:51;99641.28;;;2.85;81.63
27685;BME280;46113;50.130;8.526;2024-02-21T05:15:18;99640.34;;;2.88;81.81
27685;BME280;46113;50.130;8.526;2024-02-21T05:17:44;99634.63;;;2.68;82.07
27685;BME280;46113;50.130;8.526;2024-02-21T05:20:11;99642.19;;;2.84;82.46
27685;BME280;46113;50.130;8.526;2024-02-21T05:22:38;99638.69;;;2.84;82.18
27685;BME280;46113;50.130;8.526;2024-02-21T05:25:06;99635.09;;;2.89;81.71
27685;BME280;46113;50.130;8.526;2024-02-21T05:27:32;99632.53;;;2.86;81.82
27685;BME280;46113;50.130;8.526;2024-02-21T05:29:59;99629.00;;;2.89;82.66
27685;BME280;46113;50.130;8.526;2024-02-21T05:32:26;99625.34;;;2.98;82.21
27685;BME280;46113;50.130;8.526;2024-02-21T05:34:53;99618.41;;;2.95;83.39
27685;BME280;46113;50.130;8.526;2024-02-21T05:37:20;99623.69;;;2.93;82.54
27685;BME280;46113;50.130;8.526;2024-02-21T05:39:46;99628.00;;;2.96;82.71
27685;BME280;46113;50.130;8.526;2024-02-21T05:42:13;99631.44;;;2.98;83.20
27685;BME280;46113;50.130;8.526;2024-02-21T05:44:40;99633.13;;;3.01;83.25
27685;BME280;46113;50.130;8.526;2024-02-21T05:47:07;99643.63;;;2.98;83.82
27685;BME280;46113;50.130;8.526;2024-02-21T05:49:36;99648.03;;;2.95;84.30
27685;BME280;46113;50.130;8.526;2024-02-21T05:52:04;99646.16;;;3.02;83.96
27685;BME280;46113;50.130;8.526;2024-02-21T05:54:32;99636.00;;;2.88;82.99
27685;BME280;46113;50.130;8.526;2024-02-21T05:56:59;99623.47;;;3.03;82.44
27685;BME280;46113;50.130;8.526;2024-02-21T05:59:26;99619.06;;;3.06;81.81
27685;BME280;46113;50.130;8.526;2024-02-21T06:01:57;99628.94;;;2.93;81.67
27685;BME280;46113;50.130;8.526;2024-02-21T06:04:26;99629.59;;;3.02;80.97
27685;BME280;46113;50.130;8.526;2024-02-21T06:06:53;99622.69;;;2.99;80.74
27685;BME280;46113;50.130;8.526;2024-02-21T06:09:20;99627.06;;;2.99;80.59
27685;BME280;46113;50.130;8.526;2024-02-21T06:11:53;99628.78;;;3.00;80.83
27685;BME280;46113;50.130;8.526;2024-02-21T06:14:23;99621.00;;;2.97;81.11
27685;BME280;46113;50.130;8.526;2024-02-21T06:16:50;99619.06;;;3.06;81.50
27685;BME280;46113;50.130;8.526;2024-02-21T06:19:24;99621.94;;;2.92;79.63
27685;BME280;46113;50.130;8.526;2024-02-21T06:21:54;99619.00;;;3.08;80.03
27685;BME280;46113;50.130;8.526;2024-02-21T06:24:32;99623.75;;;2.90;80.64
27685;BME280;46113;50.130;8.526;2024-02-21T06:27:43;99607.78;;;3.03;79.89
27685;BME280;46113;50.130;8.526;2024-02-21T06:31:02;99610.53;;;2.97;79.54
27685;BME280;46113;50.130;8.526;2024-02-21T06:33:50;99609.59;;;3.01;79.00
27685;BME280;46113;50.130;8.526;2024-02-21T06:36:21;99596.50;;;3.02;78.98
27685;BME280;46113;50.130;8.526;2024-02-21T06:39:06;99591.91;;;3.14;78.91
27685;BME280;46113;50.130;8.526;2024-02-21T06:41:47;99584.53;;;2.92;78.31
27685;BME280;46113;50.130;8.526;2024-02-21T06:44:17;99591.41;;;2.96;77.49
27685;BME280;46113;50.130;8.526;2024-02-21T06:46:45;99598.03;;;3.13;77.60
27685;BME280;46113;50.130;8.526;2024-02-21T06:49:13;99602.38;;;3.12;79.24
27685;BME280;46113;50.130;8.526;2024-02-21T06:51:46;99597.50;;;2.95;79.24
27685;BME280;46113;50.130;8.526;2024-02-21T06:54:13;99600.13;;;2.95;78.45
27685;BME280;46113;50.130;8.526;2024-02-21T06:56:40;99610.47;;;3.01;76.99
27685;BME280;46113;50.130;8.526;2024-02-21T06:59:07;99598.06;;;2.68;78.17
27685;BME280;46113;50.130;8.526;2024-02-21T07:01:35;99599.66;;;2.74;78.75
27685;BME280;46113;50.130;8.526;2024-02-21T07:04:02;99588.84;;;2.93;78.45
27685;BME280;46113;50.130;8.526;2024-02-21T07:06:29;99587.31;;;2.82;77.82
27685;BME280;46113;50.130;8.526;2024-02-21T07:09:01;99590.44;;;3.00;78.11
27685;BME280;46113;50.130;8.526;2024-02-21T07:11:28;99584.38;;;2.98;79.24
27685;BME280;46113;50.130;8.526;2024-02-21T07:13:55;99583.66;;;2.90;78.08
27685;BME280;46113;50.130;8.526;2024-02-21T07:16:21;99598.25;;;3.02;78.90
27685;BME280;46113;50.130;8.526;2024-02-21T07:18:48;99577.00;;;3.16;78.80
27685;BME280;46113;50.130;8.526;2024-02-21T07:21:15;99584.19;;;3.07;76.35
27685;BME280;46113;50.130;8.526;2024-02-21T07:23:42;99579.34;;;2.89;77.13
27685;BME280;46113;50.130;8.526;2024-02-21T07:26:09;99589.66;;;2.95;76.59
27685;BME280;46113;50.130;8.526;2024-02-21T07:28:35;99577.03;;;2.75;77.24
27685;BME280;46113;50.130;8.526;2024-02-21T07:31:02;99576.16;;;3.17;76.64
27685;BME280;46113;50.130;8.526;2024-02-21T07:33:29;99582.25;;;3.16;76.75
27685;BME280;46113;50.130;8.526;2024-02-21T07:35:57;99574.91;;;3.33;76.90
27685;BME280;46113;50.130;8.526;2024-02-21T07:38:24;99577.81;;;3.21;75.04
27685;BME280;46113;50.130;8.526;2024-02-21T07:40:51;99582.34;;;3.13;74.93
27685;BME280;46113;50.130;8.526;2024-02-21T07:43:18;99578.25;;;3.40;75.43
27685;BME280;46113;50.130;8.526;2024-02-21T07:45:44;99569.50;;;3.41;74.05
27685;BME280;46113;50.130;8.526;2024-02-21T07:48:11;99571.97;;;3.47;73.46
27685;BME280;46113;50.130;8.526;2024-02-21T07:50:41;99574.38;;;3.58;74.52
27685;BME280;46113;50.130;8.526;2024-02-21T07:53:08;99575.31;;;3.54;73.16
27685;BME280;46113;50.130;8.526;2024-02-21T07:55:35;99575.19;;;3.60;72.88
27685;BME280;46113;50.130;8.526;2024-02-21T07:58:02;99583.16;;;3.56;72.44
27685;BME280;46113;50.130;8.526;2024-02-21T08:00:28;99586.25;;;3.72;70.87
27685;BME280;46113;50.130;8.526;2024-02-21T08:02:56;99587.47;;;3.57;72.10
27685;BME280;46113;50.130;8.526;2024-02-21T08:05:23;99583.34;;;3.84;71.81
27685;BME280;46113;50.130;8.526;2024-02-21T08:07:50;99585.75;;;3.92;71.13
27685;BME280;46113;50.130;8.526;2024-02-21T08:10:18;99577.34;;;3.79;69.60
27685;BME280;46113;50.130;8.526;2024-02-21T08:12:45;99583.00;;;3.97;69.38
27685;BME280;46113;50.130;8.526;2024-02-21T08:15:12;99576.06;;;3.96;69.55
27685;BME280;46113;50.130;8.526;2024-02-21T08:17:39;99580.03;;;3.76;70.87
27685;BME280;46113;50.130;8.526;2024-02-21T08:20:06;99574.38;;;3.93;70.35
27685;BME280;46113;50.130;8.526;2024-02-21T08:22:33;99572.75;;;4.24;71.28
27685;BME280;46113;50.130;8.526;2024-02-21T08:25:01;99565.78;;;4.23;70.20
27685;BME280;46113;50.130;8.526;2024-02-21T08:27:28;99552.38;;;4.02;69.59
27685;BME280;46113;50.130;8.526;2024-02-21T08:29:55;99555.84;;;4.01;69.91
27685;BME280;46113;50.130;8.526;2024-02-21T08:32:21;99562.34;;;4.21;69.62
27685;BME280;46113;50.130;8.526;2024-02-21T08:34:48;99559.47;;;4.30;69.63
27685;BME280;46113;50.130;8.526;2024-02-21T08:37:15;99562.00;;;4.00;68.45
27685;BME280;46113;50.130;8.526;2024-02-21T08:39:44;99549.03;;;4.29;70.21
27685;BME280;46113;50.130;8.526;2024-02-21T08:42:14;99547.56;;;4.51;69.20
27685;BME280;46113;50.130;8.526;2024-02-21T08:44:41;99541.69;;;4.42;69.08
27685;BME280;46113;50.130;8.526;2024-02-21T08:47:09;99540.84;;;4.41;69.31
27685;BME280;46113;50.130;8.526;2024-02-21T08:49:37;99536.34;;;4.46;68.81
27685;BME280;46113;50.130;8.526;2024-02-21T08:52:04;99532.19;;;4.37;67.97
27685;BME280;46113;50.130;8.526;2024-02-21T08:54:32;99535.06;;;4.60;68.56
27685;BME280;46113;50.130;8.526;2024-02-21T08:57:02;99530.94;;;4.19;67.97
27685;BME280;46113;50.130;8.526;2024-02-21T08:59:30;99515.38;;;4.14;68.72
27685;BME280;46113;50.130;8.526;2024-02-21T09:01:56;99524.47;;;4.33;68.04
27685;BME280;46113;50.130;8.526;2024-02-21T09:04:23;99518.75;;;4.50;68.45
27685;BME280;46113;50.130;8.526;2024-02-21T09:06:50;99507.56;;;4.45;67.73
27685;BME280;46113;50.130;8.526;2024-02-21T09:09:19;99506.47;;;4.52;68.02
27685;BME280;46113;50.130;8.526;2024-02-21T09:11:46;99523.72;;;4.61;68.67
27685;BME280;46113;50.130;8.526;2024-02-21T09:14:13;99506.13;;;4.33;68.00
27685;BME280;46113;50.130;8.526;2024-02-21T09:16:40;99515.56;;;4.70;68.61
27685;BME280;46113;50.130;8.526;2024-02-21T09:19:07;99511.91;;;4.76;67.67
27685;BME280;46113;50.130;8.526;2024-02-21T09:21:37;99498.53;;;4.55;67.88
27685;BME280;46113;50.130;8.526;2024-02-21T09:24:05;99485.78;;;4.73;67.67
27685;BME280;46113;50.130;8.526;2024-02-21T09:26:32;99482.16;;;4.47;67.48
27685;BME280;46113;50.130;8.526;2024-02-21T09:28:59;99481.44;;;4.72;66.97
27685;BME280;46113;50.130;8.526;2024-02-21T09:31:26;99478.59;;;4.49;67.92
27685;BME280;46113;50.130;8.526;2024-02-21T09:33:53;99470.63;;;4.54;67.45
27685;BME280;46113;50.130;8.526;2024-02-21T09:36:20;99464.69;;;4.47;67.95
27685;BME280;46113;50.130;8.526;2024-02-21T09:38:47;99463.91;;;5.02;67.39
27685;BME280;46113;50.130;8.526;2024-02-21T09:41:20;99461.91;;;4.82;67.12
27685;BME280;46113;50.130;8.526;2024-02-21T09:43:52;99472.28;;;5.14;65.53
27685;BME280;46113;50.130;8.526;2024-02-21T09:47:03;99464.69;;;5.33;64.34
27685;BME280;46113;50.130;8.526;2024-02-21T09:49:35;99458.69;;;5.02;65.22
27685;BME280;46113;50.130;8.526;2024-02-21T09:52:06;99466.09;;;5.16;65.39
27685;BME280;46113;50.130;8.526;2024-02-21T09:54:34;99466.72;;;5.25;64.56
27685;BME280;46113;50.130;8.526;2024-02-21T09:57:02;99460.91;;;5.42;64.35
27685;BME280;46113;50.130;8.526;2024-02-21T09:59:31;99455.72;;;4.85;66.24
27685;BME280;46113;50.130;8.526;2024-02-21T10:01:58;99455.41;;;5.23;65.35
27685;BME280;46113;50.130;8.526;2024-02-21T10:04:29;99452.97;;;5.45;66.04
27685;BME280;46113;50.130;8.526;2024-02-21T10:06:57;99460.69;;;5.50;65.44
27685;BME280;46113;50.130;8.526;2024-02-21T10:09:27;99467.06;;;5.41;64.77
27685;BME280;46113;50.130;8.526;2024-02-21T10:11:56;99464.03;;;5.26;63.72
27685;BME280;46113;50.130;8.526;2024-02-21T10:14:34;99461.25;;;5.04;64.93
27685;BME280;46113;50.130;8.526;2024-02-21T10:17:00;99449.81;;;5.06;63.32
27685;BME280;46113;50.130;8.526;2024-02-21T10:19:28;99457.31;;;5.17;64.49
27685;BME280;46113;50.130;8.526;2024-02-21T10:22:07;99450.72;;;5.59;63.30
27685;BME280;46113;50.130;8.526;2024-02-21T10:24:35;99442.16;;;5.54;63.17
27685;BME280;46113;50.130;8.526;2024-02-21T10:27:09;99440.34;;;5.82;62.78
27685;BME280;46113;50.130;8.526;2024-02-21T10:29:38;99439.28;;;6.11;63.11
27685;BME280;46113;50.130;8.526;2024-02-21T10:32:12;99438.94;;;5.71;63.49
27685;BME280;46113;50.130;8.526;2024-02-21T10:34:42;99434.00;;;5.62;63.01
27685;BME280;46113;50.130;8.526;2024-02-21T10:37:11;99425.72;;;6.24;62.28
27685;BME280;46113;50.130;8.526;2024-02-21T10:39:40;99423.47;;;5.64;61.44
27685;BME280;46113;50.130;8.526;2024-02-21T10:42:10;99411.25;;;6.12;60.76
27685;BME280;46113;50.130;8.526;2024-02-21T10:44:39;99416.53;;;6.36;61.11
27685;BME280;46113;50.130;8.526;2024-02-21T10:47:08;99400.88;;;6.55;59.93
27685;BME280;46113;50.130;8.526;2024-02-21T10:49:40;99404.94;;;6.18;60.52
27685;BME280;46113;50.130;8.526;2024-02-21T10:52:15;99388.63;;;6.08;60.54
27685;BME280;46113;50.130;8.526;2024-02-21T10:54:45;99390.84;;;6.65;61.00
27685;BME280;46113;50.130;8.526;2024-02-21T10:57:13;99384.50;;;6.48;58.87
27685;BME280;46113;50.130;8.526;2024-02-21T10:59:44;99376.03;;;6.40;58.35
27685;BME280;46113;50.130;8.526;2024-02-21T11:02:11;99379.50;;;5.94;59.99
27685;BME280;46113;50.130;8.526;2024-02-21T11:04:38;99369.41;;;6.07;59.73
27685;BME280;46113;50.130;8.526;2024-02-21T11:07:09;99363.16;;;6.34;59.29
27685;BME280;46113;50.130;8.526;2024-02-21T11:09:37;99367.03;;;6.47;59.40
27685;BME280;46113;50.130;8.526;2024-02-21T11:12:05;99369.66;;;6.70;58.32
27685;BME280;46113;50.130;8.526;2024-02-21T11:14:33;99365.00;;;6.32;58.82
27685;BME280;46113;50.130;8.526;2024-02-21T11:17:17;99356.63;;;6.44;58.24
27685;BME280;46113;50.130;8.526;2024-02-21T11:19:44;99354.25;;;6.14;58.38
27685;BME280;46113;50.130;8.526;2024-02-21T11:22:16;99354.34;;;6.12;59.93
27685;BME280;46113;50.130;8.526;2024-02-21T11:24:44;99353.63;;;6.54;57.57
27685;BME280;46113;50.130;8.526;2024-02-21T11:32:16;99335.97;;;6.57;58.21
27685;BME280;46113;50.130;8.526;2024-02-21T11:37:24;99323.94;;;6.51;57.23
27685;BME280;46113;50.130;8.526;2024-02-21T11:39:52;99310.13;;;6.46;57.20
27685;BME280;46113;50.130;8.526;2024-02-21T11:42:19;99310.84;;;6.50;57.87
27685;BME280;46113;50.130;8.526;2024-02-21T11:44:46;99313.53;;;6.71;57.44
27685;BME280;46113;50.130;8.526;2024-02-21T11:47:14;99294.41;;;6.45;57.16
27685;BME280;46113;50.130;8.526;2024-02-21T11:49:45;99303.13;;;6.45;58.16
27685;BME280;46113;50.130;8.526;2024-02-21T11:52:13;99279.81;;;6.81;58.39
27685;BME280;46113;50.130;8.526;2024-02-21T11:54:42;99270.91;;;7.05;56.46
27685;BME280;46113;50.130;8.526;2024-02-21T11:57:10;99268.88;;;6.69;57.30
27685;BME280;46113;50.130;8.526;2024-02-21T11:59:39;99260.94;;;6.91;56.02
27685;BME280;46113;50.130;8.526;2024-02-21T12:02:07;99247.19;;;6.85;57.48
27685;BME280;46113;50.130;8.526;2024-02-21T12:04:35;99258.56;;;7.08;56.41
27685;BME280;46113;50.130;8.526;2024-02-21T12:07:02;99262.19;;;7.45;56.33
27685;BME280;46113;50.130;8.526;2024-02-21T12:09:31;99249.50;;;6.92;57.93
27685;BME280;46113;50.130;8.526;2024-02-21T12:12:03;99244.50;;;6.86;56.25
27685;BME280;46113;50.130;8.526;2024-02-21T12:14:34;99245.34;;;7.09;56.57
27685;BME280;46113;50.130;8.526;2024-02-21T12:17:02;99233.47;;;6.99;55.64
27685;BME280;46113;50.130;8.526;2024-02-21T12:19:31;99231.03;;;6.73;57.16
27685;BME280;46113;50.130;8.526;2024-02-21T12:21:59;99214.72;;;7.27;56.72
27685;BME280;46113;50.130;8.526;2024-02-21T12:24:27;99210.59;;;7.01;55.99
27685;BME280;46113;50.130;8.526;2024-02-21T12:26:55;99207.66;;;7.28;57.05
27685;BME280;46113;50.130;8.526;2024-02-21T12:29:24;99202.97;;;7.15;57.60
27685;BME280;46113;50.130;8.526;2024-02-21T12:31:55;99201.44;;;6.89;56.44
27685;BME280;46113;50.130;8.526;2024-02-21T12:34:23;99201.31;;;6.92;57.92
27685;BME280;46113;50.130;8.526;2024-02-21T12:37:04;99195.47;;;7.06;55.75
27685;BME280;46113;50.130;8.526;2024-02-21T12:39:31;99200.47;;;6.50;56.17
27685;BME280;46113;50.130;8.526;2024-02-21T12:41:59;99197.63;;;6.55;56.44
27685;BME280;46113;50.130;8.526;2024-02-21T12:44:26;99193.22;;;6.97;57.35
27685;BME280;46113;50.130;8.526;2024-02-21T12:46:53;99179.06;;;6.99;55.73
27685;BME280;46113;50.130;8.526;2024-02-21T12:49:21;99180.88;;;6.99;57.20
27685;BME280;46113;50.130;8.526;2024-02-21T12:51:49;99178.13;;;7.42;57.32
27685;BME280;46113;50.130;8.526;2024-02-21T12:54:16;99165.22;;;6.96;57.12
27685;BME280;46113;50.130;8.526;2024-02-21T12:56:42;99164.72;;;7.27;57.72
27685;BME280;46113;50.130;8.526;2024-02-21T12:59:09;99150.94;;;7.22;56.89
27685;BME280;46113;50.130;8.526;2024-02-21T13:01:36;99146.25;;;7.29;56.89
27685;BME280;46113;50.130;8.526;2024-02-21T13:04:05;99140.75;;;7.53;57.08
27685;BME280;46113;50.130;8.526;2024-02-21T13:06:32;99142.09;;;7.42;56.19
27685;BME280;46113;50.130;8.526;2024-02-21T13:08:59;99147.34;;;7.62;56.17
27685;BME280;46113;50.130;8.526;2024-02-21T13:11:31;99142.59;;;7.51;55.56
27685;BME280;46113;50.130;8.526;2024-02-21T13:13:58;99144.72;;;6.62;55.42
27685;BME280;46113;50.130;8.526;2024-02-21T13:16:26;99137.94;;;6.98;56.58
27685;BME280;46113;50.130;8.526;2024-02-21T13:18:53;99131.06;;;6.75;57.11
27685;BME280;46113;50.130;8.526;2024-02-21T13:21:20;99137.41;;;6.90;58.15
27685;BME280;46113;50.130;8.526;2024-02-21T13:23:48;99132.88;;;7.14;58.64